Time;durP1;ratioP1;P1;durP2;ratioP2;P2;SDS_P1;SDS_P2;PMS_P1;PMS_P2;Temp;Humidity;BMP_temperature;BMP_pressure;BME280_temperature;BME280_humidity;BME280_pressure;Samples;Min_cycle;Max_cycle;Signal;HPM_P1;HPM_P2
2022/10/13 00:00:30;;;;;;;15.90;7.55;;;7.30;99.90;;;;;;4993277;28;20076;-69
2022/10/13 00:02:59;;;;;;;19.95;7.63;;;7.20;99.90;;;;;;4981796;28;20031;-70
2022/10/13 00:05:25;;;;;;;27.88;7.82;;;7.20;99.90;;;;;;4974547;28;20027;-70
2022/10/13 00:07:51;;;;;;;18.58;8.00;;;7.00;99.90;;;;;;4983758;28;20042;-70
2022/10/13 00:10:16;;;;;;;17.27;7.05;;;7.00;99.90;;;;;;4993773;28;20030;-70
2022/10/13 00:12:42;;;;;;;32.05;7.95;;;6.90;99.90;;;;;;4993014;28;20022;-69
2022/10/13 00:15:08;;;;;;;22.42;8.65;;;6.80;99.90;;;;;;4974381;28;20023;-70
2022/10/13 00:17:35;;;;;;;18.08;7.00;;;6.80;99.90;;;;;;4984431;28;20118;-70
2022/10/13 00:20:02;;;;;;;22.45;7.65;;;6.70;99.90;;;;;;4988359;28;20563;-70
2022/10/13 00:22:27;;;;;;;19.15;7.05;;;6.70;99.90;;;;;;4989501;28;20109;-70
2022/10/13 00:24:53;;;;;;;15.52;7.45;;;6.70;99.90;;;;;;4993547;28;20082;-70
2022/10/13 00:27:19;;;;;;;21.33;8.27;;;6.80;99.90;;;;;;4993039;28;20034;-70
2022/10/13 00:29:44;;;;;;;17.05;7.80;;;6.80;99.90;;;;;;4993541;28;20039;-70
2022/10/13 00:32:10;;;;;;;21.60;7.60;;;6.90;99.90;;;;;;4993893;28;20022;-70
2022/10/13 00:34:37;;;;;;;21.52;8.57;;;7.00;99.90;;;;;;4993623;28;20021;-70
2022/10/13 00:37:03;;;;;;;21.08;9.10;;;7.10;99.90;;;;;;4993680;28;20073;-70
2022/10/13 00:39:29;;;;;;;19.92;9.13;;;7.20;99.90;;;;;;4993513;28;20536;-70
2022/10/13 00:41:57;;;;;;;21.80;7.68;;;7.20;99.90;;;;;;4993202;28;20035;-70
2022/10/13 00:45:01;;;;;;;19.83;8.38;;;7.30;99.90;;;;;;4993816;28;20091;-70
2022/10/13 00:47:39;;;;;;;25.58;9.30;;;7.40;99.90;;;;;;4991542;28;20481;-70
2022/10/13 00:50:08;;;;;;;24.73;9.80;;;7.40;99.90;;;;;;4973946;28;20066;-70
2022/10/13 00:52:35;;;;;;;18.83;7.53;;;7.50;99.90;;;;;;4973529;28;20027;-70
2022/10/13 00:55:02;;;;;;;19.55;8.75;;;7.50;99.90;;;;;;4978255;28;20031;-70
2022/10/13 00:57:28;;;;;;;22.98;9.15;;;7.40;99.90;;;;;;4974039;28;20560;-70
2022/10/13 00:59:53;;;;;;;19.23;8.80;;;7.50;99.90;;;;;;4986999;28;20038;-70
2022/10/13 01:02:20;;;;;;;23.17;8.00;;;7.40;99.90;;;;;;4993378;28;20031;-70
2022/10/13 01:04:46;;;;;;;22.83;9.88;;;7.40;99.90;;;;;;4993427;28;20105;-70
2022/10/13 01:07:14;;;;;;;16.42;8.45;;;7.40;99.90;;;;;;4993360;28;20034;-70
2022/10/13 01:09:41;;;;;;;15.23;7.95;;;7.40;99.90;;;;;;4993387;28;20058;-70
2022/10/13 01:12:33;;;;;;;15.77;7.78;;;7.40;99.90;;;;;;4993480;28;20165;-70
2022/10/13 01:15:37;;;;;;;13.88;7.25;;;7.40;99.90;;;;;;4997451;28;20031;-70
2022/10/13 01:18:19;;;;;;;22.50;8.17;;;7.20;99.90;;;;;;4997204;28;20029;-70
2022/10/13 01:20:47;;;;;;;28.50;8.45;;;7.20;99.90;;;;;;4996934;28;20026;-70
2022/10/13 01:23:54;;;;;;;17.80;8.23;;;7.00;99.90;;;;;;4996240;28;20127;-70
2022/10/13 01:26:44;;;;;;;27.40;9.15;;;7.00;99.90;;;;;;4996765;28;20472;-70
2022/10/13 01:29:18;;;;;;;17.30;7.70;;;6.90;99.90;;;;;;4996784;28;20026;-70
2022/10/13 01:32:13;;;;;;;29.60;9.57;;;6.90;99.90;;;;;;4997162;28;20470;-70
2022/10/13 01:34:51;;;;;;;14.80;8.65;;;6.80;99.90;;;;;;4996384;28;20428;-70
2022/10/13 01:37:47;;;;;;;13.38;7.82;;;6.70;99.90;;;;;;4996578;28;20053;-70
2022/10/13 01:40:31;;;;;;;29.83;10.20;;;6.70;99.90;;;;;;4996464;28;20077;-70
2022/10/13 01:43:09;;;;;;;32.50;10.27;;;6.60;99.90;;;;;;4996158;28;20089;-70
2022/10/13 01:45:41;;;;;;;26.80;9.82;;;6.60;99.90;;;;;;4996409;28;20113;-70
2022/10/13 01:48:08;;;;;;;22.90;9.95;;;6.50;99.90;;;;;;4996274;28;20094;-70
2022/10/13 01:50:35;;;;;;;17.05;8.98;;;6.50;99.90;;;;;;4996202;28;20057;-70
2022/10/13 01:53:03;;;;;;;22.10;9.45;;;6.50;99.90;;;;;;4996212;28;20018;-70
2022/10/13 01:55:30;;;;;;;33.00;10.93;;;6.50;99.90;;;;;;4995640;28;20030;-69
2022/10/13 01:57:56;;;;;;;19.48;9.80;;;6.50;99.90;;;;;;4996132;28;20026;-70
2022/10/13 02:00:23;;;;;;;20.67;10.25;;;6.50;99.90;;;;;;4996044;28;20022;-70
2022/10/13 02:03:06;;;;;;;29.00;11.05;;;6.50;99.90;;;;;;4996321;28;20026;-70
2022/10/13 02:05:48;;;;;;;24.42;11.80;;;6.50;99.90;;;;;;4996046;28;20037;-70
2022/10/13 02:08:22;;;;;;;27.13;11.25;;;6.60;99.90;;;;;;4995445;28;20030;-69
2022/10/13 02:11:07;;;;;;;21.50;10.77;;;6.70;99.90;;;;;;4996061;28;20030;-70
2022/10/13 02:13:35;;;;;;;32.72;10.85;;;6.70;99.90;;;;;;4995831;28;20409;-70
2022/10/13 02:16:01;;;;;;;23.40;11.65;;;6.80;99.90;;;;;;4995796;28;20057;-70
2022/10/13 02:18:32;;;;;;;27.17;11.18;;;6.80;99.90;;;;;;4995689;28;20487;-71
2022/10/13 02:20:58;;;;;;;55.55;14.15;;;6.90;99.90;;;;;;4995981;28;20022;-70
2022/10/13 02:23:24;;;;;;;27.85;11.75;;;7.00;99.90;;;;;;4994327;28;20030;-70
2022/10/13 02:25:50;;;;;;;21.98;11.07;;;7.00;99.90;;;;;;4995279;28;20038;-70
2022/10/13 02:28:16;;;;;;;33.50;11.52;;;7.10;99.90;;;;;;4995759;28;20518;-70
2022/10/13 02:30:44;;;;;;;31.60;13.07;;;7.10;99.90;;;;;;4995455;28;20050;-70
2022/10/13 02:33:11;;;;;;;24.55;12.52;;;7.10;99.90;;;;;;4994965;28;20102;-70
2022/10/13 02:35:37;;;;;;;18.40;10.77;;;7.10;99.90;;;;;;4995718;28;20034;-70
2022/10/13 02:38:03;;;;;;;25.88;10.63;;;7.10;99.90;;;;;;4995355;28;20019;-70
2022/10/13 02:40:29;;;;;;;21.30;11.15;;;7.20;99.90;;;;;;4995262;28;20034;-70
2022/10/13 02:42:54;;;;;;;30.63;12.27;;;7.20;99.90;;;;;;4995548;28;20054;-70
2022/10/13 02:45:20;;;;;;;27.40;13.20;;;7.20;99.90;;;;;;4994764;28;20450;-70
2022/10/13 02:47:45;;;;;;;27.10;11.32;;;7.30;99.90;;;;;;4995150;28;20388;-70
2022/10/13 02:50:11;;;;;;;25.70;12.00;;;7.30;99.90;;;;;;5085734;22;20053;-72
2022/10/13 02:52:37;;;;;;;27.48;11.38;;;7.30;99.90;;;;;;5035789;28;20035;-72
2022/10/13 02:55:03;;;;;;;25.88;12.57;;;7.30;99.90;;;;;;5034684;28;20109;-72
2022/10/13 02:57:28;;;;;;;34.25;12.43;;;7.30;99.90;;;;;;5034188;28;20036;-72
2022/10/13 02:59:54;;;;;;;29.00;12.45;;;7.30;99.90;;;;;;5034706;28;20552;-72
2022/10/13 03:02:19;;;;;;;30.25;12.02;;;7.40;99.90;;;;;;5033414;28;20029;-72
2022/10/13 03:04:47;;;;;;;24.92;12.13;;;7.40;99.90;;;;;;5034844;28;20037;-72
2022/10/13 03:07:13;;;;;;;26.20;11.23;;;7.40;99.90;;;;;;5034866;28;20488;-72
2022/10/13 03:09:38;;;;;;;35.10;12.07;;;7.50;99.90;;;;;;5033963;28;20104;-72
2022/10/13 03:12:04;;;;;;;25.73;11.85;;;7.50;99.90;;;;;;5034501;28;20022;-72
2022/10/13 03:14:29;;;;;;;21.38;11.80;;;7.50;99.90;;;;;;5034718;28;20100;-72
2022/10/13 03:16:55;;;;;;;25.48;11.45;;;7.60;99.90;;;;;;5034618;28;20108;-72
2022/10/13 03:19:21;;;;;;;22.25;10.73;;;7.60;99.90;;;;;;5033168;28;20032;-72
2022/10/13 03:21:46;;;;;;;18.83;10.75;;;7.60;99.90;;;;;;5034361;28;20102;-72
2022/10/13 03:24:12;;;;;;;19.50;11.50;;;7.70;99.90;;;;;;5033713;28;20025;-72
2022/10/13 03:26:37;;;;;;;23.58;10.40;;;7.60;99.90;;;;;;5034708;28;20076;-72
2022/10/13 03:29:03;;;;;;;23.15;11.60;;;7.70;99.90;;;;;;5032844;28;20021;-72
2022/10/13 03:31:29;;;;;;;29.33;12.63;;;7.60;99.90;;;;;;5032836;28;20022;-72
2022/10/13 03:33:54;;;;;;;27.63;11.30;;;7.70;99.90;;;;;;5034106;28;20500;-72
2022/10/13 03:36:20;;;;;;;29.50;12.10;;;7.70;99.90;;;;;;5033353;28;20035;-72
2022/10/13 03:38:48;;;;;;;28.08;12.80;;;7.70;99.90;;;;;;5034164;28;20443;-72
2022/10/13 03:41:16;;;;;;;26.45;11.85;;;7.70;99.90;;;;;;5034031;28;20061;-72
2022/10/13 03:43:43;;;;;;;22.42;11.55;;;7.70;99.90;;;;;;5033909;28;20034;-72
2022/10/13 03:46:13;;;;;;;30.33;12.43;;;7.70;99.90;;;;;;5033916;28;20033;-72
2022/10/13 03:48:39;;;;;;;19.10;11.25;;;7.80;99.90;;;;;;5033351;28;20056;-72
2022/10/13 03:51:17;;;;;;;28.95;12.10;;;7.80;99.90;;;;;;5032366;28;20068;-72
2022/10/13 03:53:43;;;;;;;22.23;11.15;;;7.80;99.90;;;;;;5034185;28;20033;-72
2022/10/13 03:56:15;;;;;;;31.70;13.90;;;7.90;99.90;;;;;;5034096;28;20025;-72
2022/10/13 03:58:41;;;;;;;26.42;12.10;;;7.90;99.90;;;;;;5034060;28;20037;-72
2022/10/13 04:01:07;;;;;;;26.88;12.35;;;7.90;99.90;;;;;;5031929;28;20396;-72
2022/10/13 04:03:33;;;;;;;31.42;13.25;;;7.90;99.90;;;;;;5033631;28;20025;-72
2022/10/13 04:06:00;;;;;;;31.65;13.60;;;7.90;99.90;;;;;;5033589;28;20040;-72
2022/10/13 04:08:27;;;;;;;26.90;13.88;;;7.90;99.90;;;;;;5033753;28;20032;-72
2022/10/13 04:11:04;;;;;;;28.17;13.68;;;7.90;99.90;;;;;;5033054;28;20492;-72
2022/10/13 04:13:30;;;;;;;24.50;13.10;;;7.90;99.90;;;;;;5030801;28;20398;-72
2022/10/13 04:16:04;;;;;;;34.17;12.82;;;7.90;99.90;;;;;;5014024;28;20028;-72
2022/10/13 04:18:29;;;;;;;31.20;14.82;;;7.90;99.90;;;;;;5015307;28;20095;-72
2022/10/13 04:20:55;;;;;;;15.13;10.93;;;7.90;99.90;;;;;;5032113;28;20508;-72
2022/10/13 04:23:21;;;;;;;26.58;12.75;;;7.90;99.90;;;;;;5032284;28;20104;-72
2022/10/13 04:25:46;;;;;;;20.52;12.35;;;7.90;99.90;;;;;;5032966;28;20061;-72
2022/10/13 04:28:12;;;;;;;28.02;12.23;;;8.00;99.90;;;;;;5031174;28;20033;-72
2022/10/13 04:30:38;;;;;;;27.65;13.00;;;8.00;99.90;;;;;;5028680;28;20051;-72
2022/10/13 04:33:03;;;;;;;17.20;10.30;;;8.00;99.90;;;;;;5032239;28;20109;-72
2022/10/13 04:35:29;;;;;;;20.45;11.13;;;7.90;99.90;;;;;;5026803;28;20060;-71
2022/10/13 04:37:56;;;;;;;21.60;11.65;;;8.00;99.90;;;;;;5034115;28;20096;-72
2022/10/13 04:40:22;;;;;;;24.95;12.05;;;8.00;99.90;;;;;;5032604;28;20079;-72
2022/10/13 04:42:48;;;;;;;25.45;10.93;;;8.00;99.90;;;;;;5033542;28;20033;-72
2022/10/13 04:45:13;;;;;;;18.52;11.18;;;7.90;99.90;;;;;;5033180;28;20036;-72
2022/10/13 04:47:39;;;;;;;22.83;11.20;;;8.00;99.90;;;;;;5034323;28;20028;-72
2022/10/13 04:50:05;;;;;;;23.55;12.38;;;8.00;99.90;;;;;;5036788;28;20052;-72
2022/10/13 04:52:34;;;;;;;34.72;12.70;;;7.90;99.90;;;;;;5037012;28;20025;-72
2022/10/13 04:55:00;;;;;;;23.00;12.82;;;7.90;99.90;;;;;;5036894;28;20061;-72
2022/10/13 04:57:26;;;;;;;29.00;12.82;;;7.90;99.90;;;;;;5037603;28;20099;-72
2022/10/13 04:59:51;;;;;;;28.17;12.48;;;7.90;99.90;;;;;;5036364;28;20030;-72
2022/10/13 05:02:17;;;;;;;24.50;11.63;;;7.90;99.90;;;;;;5035618;28;20032;-72
2022/10/13 05:04:42;;;;;;;28.13;13.18;;;7.90;99.90;;;;;;5036920;28;20064;-72
2022/10/13 05:07:08;;;;;;;22.50;11.52;;;7.80;99.90;;;;;;5037051;28;20458;-72
2022/10/13 05:09:33;;;;;;;22.38;11.77;;;7.80;99.90;;;;;;5036155;28;20412;-72
2022/10/13 05:11:59;;;;;;;29.40;13.45;;;7.80;99.90;;;;;;5036954;28;20060;-72
2022/10/13 05:14:24;;;;;;;21.20;13.05;;;7.80;99.90;;;;;;5036648;28;20092;-72
2022/10/13 05:16:50;;;;;;;27.88;12.57;;;7.80;99.90;;;;;;5036672;28;20021;-72
2022/10/13 05:19:16;;;;;;;17.85;11.77;;;7.70;99.90;;;;;;5035136;28;20056;-72
2022/10/13 05:21:41;;;;;;;26.67;13.20;;;7.70;99.90;;;;;;5035303;28;20526;-72
2022/10/13 05:24:12;;;;;;;26.05;12.10;;;7.70;99.90;;;;;;5036096;28;20025;-72
2022/10/13 05:26:38;;;;;;;17.85;12.23;;;7.70;99.90;;;;;;5036819;28;20056;-72
2022/10/13 05:29:04;;;;;;;24.98;12.85;;;7.70;99.90;;;;;;5036333;28;20032;-72
2022/10/13 05:31:31;;;;;;;26.98;13.95;;;7.70;99.90;;;;;;5036260;28;20381;-72
2022/10/13 05:33:57;;;;;;;32.85;16.08;;;7.80;99.90;;;;;;5036288;28;20370;-72
2022/10/13 05:36:31;;;;;;;33.53;13.93;;;7.80;99.90;;;;;;5036267;28;20024;-72
2022/10/13 05:38:59;;;;;;;35.05;14.85;;;7.80;99.90;;;;;;5035730;28;20473;-71
2022/10/13 05:41:27;;;;;;;31.75;14.45;;;7.80;99.90;;;;;;5036082;28;20022;-72
2022/10/13 05:43:57;;;;;;;36.60;14.77;;;7.90;99.90;;;;;;5036110;28;20018;-72
2022/10/13 05:46:23;;;;;;;31.55;14.95;;;7.90;99.90;;;;;;5036196;28;20034;-72
2022/10/13 05:48:49;;;;;;;30.55;15.13;;;7.90;99.90;;;;;;5035401;28;20025;-72
2022/10/13 05:51:29;;;;;;;28.60;15.23;;;7.90;99.90;;;;;;5035629;28;20091;-72
2022/10/13 05:54:06;;;;;;;26.38;14.50;;;7.90;99.90;;;;;;5034806;28;20036;-72
2022/10/13 05:56:42;;;;;;;33.17;15.65;;;7.90;99.90;;;;;;5036062;28;20025;-72
2022/10/13 05:59:11;;;;;;;33.33;15.20;;;8.00;99.90;;;;;;5035813;28;20026;-72
2022/10/13 06:01:39;;;;;;;24.00;14.95;;;8.00;99.90;;;;;;5035237;28;20441;-72
2022/10/13 06:04:18;;;;;;;34.30;15.93;;;8.00;99.90;;;;;;5035946;28;20030;-72
2022/10/13 06:06:44;;;;;;;32.50;14.00;;;8.10;99.90;;;;;;5036043;28;20030;-72
2022/10/13 06:09:10;;;;;;;27.67;14.00;;;8.10;99.90;;;;;;5035861;28;20025;-72
2022/10/13 06:11:35;;;;;;;24.60;14.32;;;8.10;99.90;;;;;;5034146;28;20053;-72
2022/10/13 06:14:01;;;;;;;26.58;14.13;;;8.10;99.90;;;;;;5048871;28;20100;-72
2022/10/13 06:16:26;;;;;;;29.05;14.85;;;8.10;99.90;;;;;;5040473;28;20026;-72
2022/10/13 06:18:52;;;;;;;23.15;13.73;;;8.20;99.90;;;;;;5030875;28;20034;-72
2022/10/13 06:21:17;;;;;;;29.80;15.68;;;8.20;99.90;;;;;;5015828;28;20043;-72
2022/10/13 06:23:43;;;;;;;27.92;15.30;;;8.20;99.90;;;;;;5015699;28;20485;-72
2022/10/13 06:26:08;;;;;;;29.85;15.10;;;8.20;99.90;;;;;;5016713;28;20040;-72
2022/10/13 06:28:34;;;;;;;31.10;16.75;;;8.30;99.90;;;;;;5015182;28;20030;-72
2022/10/13 06:31:03;;;;;;;39.15;18.25;;;8.30;99.90;;;;;;5014122;28;20018;-72
2022/10/13 06:33:29;;;;;;;38.45;17.58;;;8.30;99.90;;;;;;5015386;28;20034;-72
2022/10/13 06:35:54;;;;;;;30.42;15.15;;;8.30;99.90;;;;;;5015349;28;20036;-72
2022/10/13 06:38:20;;;;;;;27.55;15.75;;;8.40;99.90;;;;;;5015252;28;20432;-72
2022/10/13 06:40:46;;;;;;;28.20;15.75;;;8.40;99.90;;;;;;5016577;28;20034;-72
2022/10/13 06:43:11;;;;;;;38.15;17.63;;;8.40;99.90;;;;;;5015259;28;20101;-72
2022/10/13 06:45:37;;;;;;;30.70;16.73;;;8.40;99.90;;;;;;5021570;28;20440;-72
2022/10/13 06:48:02;;;;;;;39.58;19.05;;;8.50;99.90;;;;;;5033705;28;20032;-72
2022/10/13 06:50:28;;;;;;;36.97;19.00;;;8.60;99.90;;;;;;5034599;28;20033;-72
2022/10/13 06:52:55;;;;;;;46.28;22.45;;;8.60;99.90;;;;;;5029815;28;20068;-72
2022/10/13 06:55:20;;;;;;;56.67;22.70;;;8.70;99.90;;;;;;5014981;28;20026;-72
2022/10/13 06:57:46;;;;;;;52.33;22.60;;;8.70;99.90;;;;;;5017497;28;20036;-72
2022/10/13 07:00:12;;;;;;;60.70;24.38;;;8.80;99.90;;;;;;5014852;28;20029;-72
2022/10/13 07:02:37;;;;;;;48.42;24.90;;;8.80;99.90;;;;;;5016796;28;20156;-72
2022/10/13 07:05:03;;;;;;;46.40;22.67;;;8.90;99.90;;;;;;5017733;28;20026;-73
2022/10/13 07:07:29;;;;;;;41.03;22.80;;;8.90;99.90;;;;;;5034546;28;20499;-72
2022/10/13 07:09:54;;;;;;;49.83;20.02;;;9.00;99.90;;;;;;5031930;28;20030;-72
2022/10/13 07:12:20;;;;;;;39.13;21.30;;;9.10;99.90;;;;;;5019384;28;20040;-72
2022/10/13 07:14:46;;;;;;;55.08;21.98;;;9.20;99.90;;;;;;5017110;28;20108;-72
2022/10/13 07:17:12;;;;;;;59.53;22.48;;;9.30;99.90;;;;;;5034449;28;20449;-72
2022/10/13 07:19:37;;;;;;;56.40;22.20;;;9.30;99.90;;;;;;5034449;28;20053;-72
2022/10/13 07:22:03;;;;;;;48.35;23.77;;;9.40;99.90;;;;;;5032309;28;20029;-72
2022/10/13 07:24:29;;;;;;;51.38;23.63;;;9.40;99.90;;;;;;5033923;28;20033;-72
2022/10/13 07:26:55;;;;;;;51.92;23.45;;;9.40;99.90;;;;;;5022604;28;20038;-72
2022/10/13 07:29:20;;;;;;;67.32;24.88;;;9.40;99.90;;;;;;5014469;28;20034;-72
2022/10/13 07:31:46;;;;;;;51.45;22.88;;;9.40;99.90;;;;;;5013851;28;20014;-72
2022/10/13 07:34:13;;;;;;;49.47;22.38;;;9.50;99.90;;;;;;5014383;28;20383;-72
2022/10/13 07:36:40;;;;;;;62.88;25.27;;;9.50;99.90;;;;;;5014169;28;20026;-71
2022/10/13 07:39:07;;;;;;;68.22;23.98;;;9.60;99.90;;;;;;5029186;28;20038;-72
2022/10/13 07:41:33;;;;;;;53.47;25.65;;;9.70;99.90;;;;;;5014146;28;20099;-72
2022/10/13 07:43:59;;;;;;;41.17;23.13;;;9.80;99.90;;;;;;5029606;28;20025;-72
2022/10/13 07:46:25;;;;;;;50.10;20.48;;;9.80;99.90;;;;;;5033892;28;20508;-72
2022/10/13 07:48:52;;;;;;;46.42;23.50;;;9.90;99.90;;;;;;5029472;28;20025;-72
2022/10/13 07:51:18;;;;;;;50.65;22.85;;;10.00;99.90;;;;;;5033778;28;20025;-72
2022/10/13 07:53:45;;;;;;;45.17;23.73;;;10.10;99.90;;;;;;5033283;28;20096;-72
2022/10/13 07:56:12;;;;;;;44.97;22.98;;;10.10;99.90;;;;;;5033782;28;20025;-72
2022/10/13 07:58:45;;;;;;;42.08;21.65;;;10.10;99.90;;;;;;5034344;28;20018;-73
2022/10/13 08:01:12;;;;;;;46.85;25.02;;;10.20;99.90;;;;;;5031578;28;20029;-72
2022/10/13 08:03:38;;;;;;;49.95;22.00;;;10.30;99.90;;;;;;5033807;28;20057;-73
2022/10/13 08:06:05;;;;;;;45.53;23.27;;;10.40;99.90;;;;;;5024405;28;20390;-73
2022/10/13 08:08:31;;;;;;;53.38;23.10;;;10.40;99.90;;;;;;5013328;28;20026;-72
2022/10/13 08:11:02;;;;;;;46.35;22.45;;;10.30;99.90;;;;;;5032004;28;20540;-72
2022/10/13 08:13:27;;;;;;;53.83;21.48;;;10.40;99.90;;;;;;5033436;28;20025;-72
2022/10/13 08:15:53;;;;;;;45.22;19.92;;;10.40;99.90;;;;;;5033027;28;20440;-72
2022/10/13 08:18:18;;;;;;;43.25;21.20;;;10.40;99.90;;;;;;5033264;28;20033;-72
2022/10/13 08:20:45;;;;;;;44.65;21.35;;;10.50;99.90;;;;;;5033550;28;20481;-72
2022/10/13 08:23:12;;;;;;;42.08;21.23;;;10.40;99.90;;;;;;5037659;28;20384;-72
2022/10/13 08:25:42;;;;;;;49.92;22.95;;;10.50;99.90;;;;;;5027831;28;20030;-72
2022/10/13 08:28:25;;;;;;;45.20;22.63;;;10.50;99.90;;;;;;5017914;28;20033;-72
2022/10/13 08:30:52;;;;;;;44.67;22.83;;;10.50;99.90;;;;;;5020077;28;20037;-72
2022/10/13 08:33:19;;;;;;;45.15;24.13;;;10.70;99.90;;;;;;5032981;28;20030;-72
2022/10/13 08:35:44;;;;;;;39.65;21.58;;;10.70;99.90;;;;;;5032375;28;20037;-72
2022/10/13 08:38:10;;;;;;;50.92;23.48;;;10.90;99.90;;;;;;5017923;28;20026;-71
2022/10/13 08:40:37;;;;;;;52.72;24.90;;;10.90;99.90;;;;;;5029111;28;20079;-72
2022/10/13 08:43:07;;;;;;;53.78;24.45;;;11.00;99.90;;;;;;5037897;28;20021;-72
2022/10/13 08:45:33;;;;;;;41.97;21.60;;;11.10;99.90;;;;;;5029405;28;20014;-72
2022/10/13 08:48:04;;;;;;;40.20;22.42;;;11.30;99.90;;;;;;5030121;28;20026;-72
2022/10/13 08:50:32;;;;;;;54.15;22.73;;;11.30;99.90;;;;;;5037034;28;20049;-72
2022/10/13 08:53:03;;;;;;;38.67;21.15;;;11.40;99.90;;;;;;5037289;28;20076;-72
2022/10/13 08:55:32;;;;;;;41.45;21.58;;;11.40;99.90;;;;;;5036033;28;20087;-72
2022/10/13 08:57:59;;;;;;;45.63;23.67;;;11.50;99.90;;;;;;5035676;28;20089;-72
2022/10/13 09:00:26;;;;;;;50.30;22.77;;;11.50;99.90;;;;;;5037007;28;20025;-72
2022/10/13 09:02:51;;;;;;;49.58;23.80;;;11.50;99.90;;;;;;5036566;28;20476;-72
2022/10/13 09:05:41;;;;;;;56.45;24.30;;;11.60;99.90;;;;;;5641399;22;20081;-72
2022/10/13 09:08:18;;;;;;;60.75;23.73;;;11.80;99.90;;;;;;5017096;28;20136;-72
2022/10/13 09:10:50;;;;;;;47.70;24.15;;;11.70;99.90;;;;;;5016793;28;20044;-72
2022/10/13 09:13:16;;;;;;;52.90;25.40;;;11.90;99.90;;;;;;5016984;28;20052;-72
2022/10/13 09:15:44;;;;;;;47.35;25.42;;;11.80;99.90;;;;;;5017042;28;20396;-72
2022/10/13 09:18:12;;;;;;;44.83;22.98;;;11.70;99.90;;;;;;5017031;28;20022;-72
2022/10/13 09:20:38;;;;;;;43.47;24.00;;;11.80;99.90;;;;;;5017424;28;20030;-72
2022/10/13 09:23:18;;;;;;;56.58;25.92;;;11.90;99.90;;;;;;5016882;28;20097;-72
2022/10/13 09:28:23;;;;;;;61.03;24.27;;;11.60;99.90;;;;;;5385784;23;20045;-72
2022/10/13 09:30:59;;;;;;;52.33;25.40;;;11.50;99.90;;;;;;5056841;28;20032;-72
2022/10/13 09:33:25;;;;;;;50.60;22.88;;;11.40;99.90;;;;;;5055887;28;20021;-72
2022/10/13 09:36:00;;;;;;;58.03;25.60;;;11.40;99.90;;;;;;5056872;28;20028;-72
2022/10/13 09:38:26;;;;;;;46.05;23.35;;;11.40;99.90;;;;;;5056485;28;20021;-72
2022/10/13 09:41:05;;;;;;;47.70;23.55;;;11.30;99.90;;;;;;5056840;28;20109;-72
2022/10/13 09:43:35;;;;;;;47.47;22.33;;;11.20;99.90;;;;;;5057169;28;20509;-72
2022/10/13 09:46:12;;;;;;;62.67;24.60;;;11.20;99.90;;;;;;5056751;28;20029;-72
2022/10/13 09:48:41;;;;;;;52.72;27.25;;;11.20;99.90;;;;;;5056076;28;20032;-73
2022/10/13 09:51:28;;;;;;;47.25;24.17;;;11.10;99.90;;;;;;5054350;28;20025;-72
2022/10/13 09:53:54;;;;;;;54.83;25.05;;;11.00;99.90;;;;;;5056035;28;20029;-72
2022/10/13 09:56:27;;;;;;;54.85;25.58;;;11.00;99.90;;;;;;5056234;28;20036;-73
2022/10/13 09:59:32;;;;;;;53.30;28.15;;;10.80;99.90;;;;;;5055864;28;20430;-73
2022/10/13 10:02:19;;;;;;;62.20;28.20;;;10.80;99.90;;;;;;5056143;28;20033;-73
2022/10/13 10:04:46;;;;;;;57.72;26.48;;;10.80;99.90;;;;;;5055389;28;20079;-73
2022/10/13 10:07:19;;;;;;;60.60;27.40;;;10.80;99.90;;;;;;5055916;28;20028;-73
2022/10/13 10:09:49;;;;;;;77.85;30.13;;;10.80;99.90;;;;;;5054353;28;20731;-73
2022/10/13 10:12:19;;;;;;;62.97;28.35;;;10.80;99.90;;;;;;5055922;28;20099;-73
2022/10/13 10:14:47;;;;;;;66.53;27.63;;;10.80;99.90;;;;;;5056526;28;20458;-73
2022/10/13 10:17:54;;;;;;;54.90;28.27;;;10.80;99.90;;;;;;5055630;28;20021;-73
2022/10/13 10:20:38;;;;;;;59.83;28.00;;;10.80;99.90;;;;;;5032258;28;20063;-73
2022/10/13 10:23:11;;;;;;;59.05;28.60;;;10.80;99.90;;;;;;5033861;28;20389;-73
2022/10/13 10:25:42;;;;;;;55.13;28.00;;;10.70;99.90;;;;;;5043734;28;20124;-73
2022/10/13 10:28:42;;;;;;;56.42;28.25;;;10.80;99.90;;;;;;5053845;28;20539;-73
2022/10/13 10:31:25;;;;;;;56.08;30.25;;;10.70;99.90;;;;;;5053592;28;20033;-72
2022/10/13 10:34:04;;;;;;;57.55;28.02;;;10.70;99.90;;;;;;5055286;28;20053;-73
2022/10/13 10:37:07;;;;;;;52.28;27.38;;;10.80;99.90;;;;;;5055343;28;20035;-73
2022/10/13 10:39:56;;;;;;;60.72;29.77;;;10.80;99.90;;;;;;5054817;28;20036;-72
2022/10/13 10:42:36;;;;;;;57.78;29.88;;;10.80;99.90;;;;;;5055218;28;20048;-72
2022/10/13 10:45:07;;;;;;;56.40;29.92;;;10.90;99.90;;;;;;5052603;28;20128;-72
2022/10/13 10:47:44;;;;;;;59.15;28.58;;;11.00;99.90;;;;;;5055009;28;20036;-72
2022/10/13 10:50:15;;;;;;;56.50;28.75;;;10.90;99.90;;;;;;5054283;28;20027;-72
2022/10/13 10:53:04;;;;;;;67.82;32.00;;;11.10;99.90;;;;;;5054910;28;20017;-72
2022/10/13 10:55:52;;;;;;;51.25;27.55;;;11.20;99.90;;;;;;5055145;28;20381;-73
2022/10/13 10:58:43;;;;;;;67.95;28.85;;;11.30;99.90;;;;;;5054805;28;20029;-72
2022/10/13 11:01:35;;;;;;;52.50;26.48;;;11.40;99.90;;;;;;5052650;28;20025;-72
2022/10/13 11:04:37;;;;;;;53.58;27.60;;;11.30;99.90;;;;;;5054886;28;20092;-72
2022/10/13 11:07:03;;;;;;;50.78;27.25;;;11.30;99.90;;;;;;5048512;28;20116;-72
2022/10/13 11:10:03;;;;;;;56.72;28.23;;;11.30;99.90;;;;;;5054359;28;20025;-72
2022/10/13 11:12:50;;;;;;;59.22;28.98;;;11.40;99.90;;;;;;5052743;28;20021;-72
2022/10/13 11:15:24;;;;;;;51.20;30.77;;;11.40;99.90;;;;;;5054544;28;20448;-72
2022/10/13 11:17:51;;;;;;;57.67;29.48;;;11.50;99.90;;;;;;5054220;28;20025;-72
2022/10/13 11:20:19;;;;;;;56.08;28.92;;;11.40;99.90;;;;;;5052561;28;20031;-71
2022/10/13 11:22:59;;;;;;;61.35;31.30;;;11.50;99.90;;;;;;5054184;28;20105;-72
2022/10/13 11:25:45;;;;;;;56.88;29.35;;;11.50;99.90;;;;;;5049487;28;20112;-72
2022/10/13 11:28:19;;;;;;;55.08;29.85;;;11.50;99.90;;;;;;5033678;28;20080;-72
2022/10/13 11:31:03;;;;;;;58.42;29.95;;;11.60;99.90;;;;;;5037146;28;20033;-72
2022/10/13 11:33:38;;;;;;;;;;;11.60;99.90;;;;;;5034359;28;20018;-72
2022/10/13 11:36:28;;;;;;;58.85;30.30;;;11.80;99.90;;;;;;5033455;28;20426;-72
2022/10/13 11:39:02;;;;;;;50.55;27.60;;;11.80;99.90;;;;;;5034324;28;20517;-72
2022/10/13 11:41:35;;;;;;;56.53;29.17;;;11.90;99.90;;;;;;5032775;28;20033;-72
2022/10/13 11:44:12;;;;;;;57.83;28.27;;;11.90;99.90;;;;;;5034087;28;20452;-72
2022/10/13 11:47:11;;;;;;;65.80;30.98;;;11.90;99.90;;;;;;5033993;28;20025;-72
2022/10/13 11:50:07;;;;;;;64.25;29.95;;;11.90;99.90;;;;;;5049157;28;20162;-72
2022/10/13 11:52:50;;;;;;;58.20;28.67;;;11.90;99.90;;;;;;5053963;28;20503;-72
2022/10/13 11:55:36;;;;;;;65.05;28.05;;;11.80;99.90;;;;;;5051733;28;20035;-72
2022/10/13 11:58:31;;;;;;;57.33;27.35;;;11.90;99.90;;;;;;5053644;28;20064;-72
2022/10/13 12:00:59;;;;;;;58.70;29.02;;;12.00;99.90;;;;;;5050574;28;20044;-72
2022/10/13 12:03:37;;;;;;;56.67;29.92;;;12.00;99.90;;;;;;5053961;28;20021;-72
2022/10/13 12:06:20;;;;;;;67.22;28.48;;;12.20;99.90;;;;;;5053494;28;20033;-72
2022/10/13 12:08:47;;;;;;;;;;;12.20;99.90;;;;;;5053936;28;20024;-72
2022/10/13 12:11:28;;;;;;;58.90;27.92;;;12.30;99.90;;;;;;5044584;28;19912;-72
2022/10/13 12:13:57;;;;;;;69.90;30.75;;;12.30;99.90;;;;;;5033101;28;20014;-72
2022/10/13 12:16:22;;;;;;;61.92;28.77;;;12.30;99.90;;;;;;5040581;28;20036;-72
2022/10/13 12:18:48;;;;;;;48.90;26.20;;;12.20;99.90;;;;;;5053316;28;20028;-72
2022/10/13 12:21:18;;;;;;;54.30;29.73;;;12.20;99.90;;;;;;5049756;28;20021;-72
2022/10/13 12:23:45;;;;;;;54.45;29.10;;;12.20;99.90;;;;;;5052071;28;20119;-72
2022/10/13 12:26:22;;;;;;;64.03;30.08;;;12.40;99.90;;;;;;5043400;28;20033;-72
2022/10/13 12:28:51;;;;;;;63.60;28.58;;;12.40;99.90;;;;;;5033157;28;20033;-72
2022/10/13 12:31:25;;;;;;;58.00;28.08;;;12.40;99.90;;;;;;5041905;28;20028;-72
2022/10/13 12:34:13;;;;;;;;;;;12.40;99.90;;;;;;5053614;28;20453;-72
2022/10/13 12:36:39;;;;;;;51.20;27.55;;;12.40;99.90;;;;;;5048011;28;20290;-72
2022/10/13 12:39:10;;;;;;;51.22;28.88;;;12.50;99.90;;;;;;5052010;28;20029;-72
2022/10/13 12:41:39;;;;;;;59.67;28.48;;;12.60;99.90;;;;;;5053473;28;20132;-72
2022/10/13 12:44:11;;;;;;;55.75;28.50;;;12.40;99.90;;;;;;5033240;28;20032;-72
2022/10/13 12:46:45;;;;;;;55.22;29.25;;;12.40;99.90;;;;;;5032885;28;20026;-72
2022/10/13 12:49:35;;;;;;;56.35;29.77;;;12.40;99.90;;;;;;5048524;28;20033;-72
2022/10/13 12:52:13;;;;;;;68.57;31.08;;;12.30;99.90;;;;;;5048897;28;20040;-72
2022/10/13 12:54:47;;;;;;;63.47;31.88;;;12.30;99.90;;;;;;5051874;28;20392;-72
2022/10/13 12:57:25;;;;;;;71.07;31.85;;;12.40;99.90;;;;;;5050955;28;20024;-71